• Join FlightAware (Why Join?)
  • Login
  • US Flag GB Flag 
02:24 EDT


 

Airport Tracker/Info


-or-


 

Live Flight TrackerFlight Track Log ✈ ASQ5685 ✈ 04-May-2013 ✈ KATL - KIAD

Flight Track Log - Related Links

Times and Time Zones

All times are in EDT time to prevent confusion due to time zone crossing. See the ASQ5685 flight status page for this flight to view local times or setup timezone preferences in your user account.

Time Position Orientation Groundspeed Altitude Reporting Facility
EDT Latitude Longitude Course Direction KTS MPH feet Rate Location/Type
09:24 33.6333 -84.3833 53° Northeast 170 196 2,700  Level Atlanta TRACON
09:24 33.6333 -84.3167 90° East 209 241 4,800 2,160 Climbing Atlanta TRACON
09:26 33.7649 -83.9531 54° Northeast  Level FlightAware Approximate
09:26 33.6333 -84.2333 90° East 251 289 7,100  Level Atlanta TRACON
09:26 33.6333 -84.1500 90° East 281 323 8,900 1,980 Climbing Atlanta TRACON
09:27 33.8253 -83.8525 54° Northeast  Level FlightAware Approximate
09:27 33.6564 -84.0689 71° East 285 328 10,700  Level Atlanta Center
09:28 33.8883 -83.7545 48° Northeast  Level FlightAware Approximate
09:28 33.7211 -83.9864 47° Northeast 301 346 11,800  Level Atlanta Center
09:29 33.9532 -83.6582 53° Northeast  Level FlightAware Approximate
09:29 33.7900 -83.8964 47° Northeast 343 395 13,000  Level Atlanta Center
09:30 33.8628 -83.8061 46° Northeast 365 420 14,600 1,260 Climbing Atlanta Center
09:31 33.9358 -83.7083 48° Northeast 378 435 15,600 1,080 Climbing Atlanta Center
09:32 33.9981 -83.6053 54° Northeast 378 435 16,800 1,140 Climbing Atlanta Center
09:33 34.0622 -83.5072 52° Northeast 378 435 17,900 1,020 Climbing Atlanta Center
09:34 34.1267 -83.4039 53° Northeast 378 435 18,900 900 Climbing Atlanta Center
09:35 34.1928 -83.3031 52° Northeast 378 435 19,800 780 Climbing Atlanta Center
09:36 34.2506 -83.2069 54° Northeast 384 442 20,500 720 Climbing Atlanta Center
09:37 34.3186 -83.0981 53° Northeast 394 453 21,300 780 Climbing Atlanta Center
09:38 34.3886 -82.9867 53° Northeast 394 453 22,100 780 Climbing Atlanta Center
09:39 34.4544 -82.8725 55° Northeast 406 467 22,900 840 Climbing Atlanta Center
09:40 34.5306 -82.7606 50° Northeast 422 486 23,800 840 Climbing Atlanta Center
09:41 34.5983 -82.6458 54° Northeast 415 478 24,600 720 Climbing Atlanta Center
09:42 34.6658 -82.5361 53° Northeast 415 478 25,300 720 Climbing Atlanta Center
09:43 34.7353 -82.4236 53° Northeast 415 478 26,100 600 Climbing Atlanta Center
09:44 34.8047 -82.3033 55° Northeast 415 478 26,600 480 Climbing Atlanta Center
09:45 34.8761 -82.1906 52° Northeast 415 478 27,100 540 Climbing Atlanta Center
09:46 34.9575 -82.0594 53° Northeast 421 484 27,700 540 Climbing Atlanta Center
09:47 35.0264 -81.9436 54° Northeast 426 490 28,200 480 Climbing Atlanta Center
09:48 35.0931 -81.8203 57° Northeast 433 498 28,700 480 Climbing Atlanta Center
09:49 35.1575 -81.6964 58° Northeast 428 493 29,200 480 Climbing Atlanta Center
09:50 35.2219 -81.5725 57° Northeast 428 493 29,700 480 Climbing Atlanta Center
09:51 35.2861 -81.4486 58° Northeast 422 486 30,200 480 Climbing Atlanta Center
09:52 35.3525 -81.3269 56° Northeast 422 486 30,700 360 Climbing Atlanta Center
09:53 35.4142 -81.2025 59° Northeast 422 486 31,000 120 Climbing Atlanta Center
09:54 35.4803 -81.0778 57° Northeast 427 491 31,000  Level Atlanta Center
09:55 35.5458 -80.9503 58° Northeast 432 497 31,000  Level Atlanta Center
09:56 35.6136 -80.8225 57° Northeast 438 504 31,000  Level Atlanta Center
09:57 35.6811 -80.6922 57° Northeast 438 504 31,000  Level Atlanta Center
10:00 35.8256 -80.4056 58° Northeast 455 524 31,000  Level Washington Center
10:01 35.8933 -80.2764 57° Northeast 455 524 31,000  Level Washington Center
10:02 35.9608 -80.1444 58° Northeast 450 518 31,000  Level Washington Center
10:03 36.0194 -80.0297 58° Northeast 443 510 31,000  Level Washington Center
10:04 36.0978 -79.8900 55° Northeast 443 510 31,000  Level Washington Center
10:05 36.1711 -79.7578 55° Northeast 449 517 31,000  Level Washington Center
10:06 36.2356 -79.6428 55° Northeast 458 527 31,000 -120 Level Washington Center
10:07 36.3133 -79.4997 56° Northeast 453 521 30,800 -480 Descending Washington Center
10:08 36.3772 -79.3972 52° Northeast 453 521 30,100 -1,080 Descending Washington Center
10:09 36.4528 -79.2511 57° Northeast 460 529 28,700 -1,320 Descending Washington Center
10:10 36.5383 -79.1078 53° Northeast 460 529 27,500 -1,260 Descending Washington Center
10:11 36.6111 -78.9764 55° Northeast 460 529 26,300 -1,260 Descending Washington Center
10:12 36.6817 -78.8422 57° Northeast 454 522 25,000 -660 Descending Washington Center
10:13 36.7494 -78.7208 55° Northeast 448 516 25,000  Level Washington Center
10:14 36.8172 -78.6014 55° Northeast 430 495 25,000  Level Washington Center
10:15 36.8786 -78.4819 57° Northeast 424 488 25,000 -360 Level Washington Center
10:16 36.9536 -78.3936 43° Northeast 407 468 24,300 -900 Descending Washington Center
10:17 37.0497 -78.2983 38° Northeast 414 476 23,200 -1,140 Descending Washington Center
10:18 37.1500 -78.2028 37° Northeast 430 495 22,100 -1,140 Descending Washington Center
10:19 37.2522 -78.1019 38° Northeast 430 495 21,000 -600 Descending Washington Center
10:20 37.3436 -78.0136 38° Northeast 425 489 21,000  Level Washington Center
10:21 37.4353 -77.9222 38° Northeast 425 489 21,000  Level Washington Center
10:22 37.5267 -77.8308 38° Northeast 425 489 21,000  Level Washington Center
10:23 37.6322 -77.7683 25° Northeast 419 482 21,000 -840 Level Washington Center
10:24 37.7353 -77.7083 25° Northeast 413 475 19,400 -1,800 Descending Washington Center
10:25 37.8344 -77.6506 25° Northeast 403 464 17,500 -2,220 Descending Washington Center
10:26 37.9269 -77.5978 24° Northeast 392 451 15,100 -2,400 Descending Washington Center
10:27 38.0136 -77.5422 27° Northeast 363 418 12,700 -2,280 Descending Washington Center
10:28 38.0933 -77.5019 22° Northeast 337 388 10,600 -1,380 Descending Washington Center
10:29 38.1714 -77.4536 26° Northeast 330 380 10,000 -300 Descending Washington Center
10:30 38.2428 -77.4133 24° Northeast 297 342 10,100  Climbing Washington Center
10:31 38.3122 -77.3700 26° Northeast 281 323 10,100 -480 Level Washington Center
10:32 38.3897 -77.3558 North 276 318 9,200 -1,260 Descending Washington Center
10:33 38.4667 -77.3603 357° North 271 312 7,700 -1,560 Descending Washington Center
10:34 38.5417 -77.3647 357° North 271 312 6,200 -1,560 Descending Washington Center
10:35 38.6147 -77.3667 359° North 271 312 4,600 -1,740 Descending Washington Center
10:35 38.6500 -77.3667 360° North 264 304 4,000 -480 Descending Potomac TRACON
10:36 38.7167 -77.3667 360° North 268 308 4,000  Level Potomac TRACON
10:37 38.8000 -77.3500 North 274 315 4,000  Level Potomac TRACON
10:38 38.8667 -77.3500 360° North 266 306 4,000 -480 Level Potomac TRACON
10:39 38.9333 -77.3500 360° North 261 300 3,200 -1,080 Descending Potomac TRACON
10:40 39.0000 -77.3500 360° North 240 276 2,000 -600 Descending Potomac TRACON
10:41 39.0500 -77.3833 333° Northwest 198 228 2,000 -60 Level Potomac TRACON
10:42 39.0333 -77.4333 247° West 188 216 1,900 -600 Descending Potomac TRACON
10:43 38.9833 -77.4333 180° South 150 173 1,000 -1,020 Descending Potomac TRACON
10:45 38.9474 -77.4599 195° South  Level Estimated
10:52 38.9474 -77.4599 195° South  Level Estimated
10:53 38.9474 -77.4599 195° South  Level Estimated
10:54 38.9474 -77.4599 195° South  Level Estimated
10:55 38.9474 -77.4599 195° South  Level Estimated